地図

経路データ

SID SEASON NUMBER BASIN SUBBASIN NAME ISO_TIME NATURE LAT LON WMO_WIND WMO_PRES WMO_AGENCY TRACK_TYPE DIST2LAND LANDFALL IFLAG USA_AGENCY USA_ATCF_ID USA_LAT USA_LON USA_RECORD USA_STATUS USA_WIND USA_PRES USA_SSHS USA_R34_NE USA_R34_SE USA_R34_SW USA_R34_NW USA_R50_NE USA_R50_SE USA_R50_SW USA_R50_NW USA_R64_NE USA_R64_SE USA_R64_SW USA_R64_NW USA_POCI USA_ROCI USA_RMW USA_EYE TOKYO_LAT TOKYO_LON TOKYO_GRADE TOKYO_WIND TOKYO_PRES TOKYO_R50_DIR TOKYO_R50_LONG TOKYO_R50_SHORT TOKYO_R30_DIR TOKYO_R30_LONG TOKYO_R30_SHORT TOKYO_LAND CMA_LAT CMA_LON CMA_CAT CMA_WIND CMA_PRES HKO_LAT HKO_LON HKO_CAT HKO_WIND HKO_PRES NEWDELHI_LAT NEWDELHI_LON NEWDELHI_GRADE NEWDELHI_WIND NEWDELHI_PRES NEWDELHI_CI NEWDELHI_DP NEWDELHI_POCI REUNION_LAT REUNION_LON REUNION_TYPE REUNION_WIND REUNION_PRES REUNION_TNUM REUNION_CI REUNION_RMW REUNION_R34_NE REUNION_R34_SE REUNION_R34_SW REUNION_R34_NW REUNION_R50_NE REUNION_R50_SE REUNION_R50_SW REUNION_R50_NW REUNION_R64_NE REUNION_R64_SE REUNION_R64_SW REUNION_R64_NW BOM_LAT BOM_LON BOM_TYPE BOM_WIND BOM_PRES BOM_TNUM BOM_CI BOM_RMW BOM_R34_NE BOM_R34_SE BOM_R34_SW BOM_R34_NW BOM_R50_NE BOM_R50_SE BOM_R50_SW BOM_R50_NW BOM_R64_NE BOM_R64_SE BOM_R64_SW BOM_R64_NW BOM_ROCI BOM_POCI BOM_EYE BOM_POS_METHOD BOM_PRES_METHOD NADI_LAT NADI_LON NADI_CAT NADI_WIND NADI_PRES WELLINGTON_LAT WELLINGTON_LON WELLINGTON_WIND WELLINGTON_PRES DS824_LAT DS824_LON DS824_STAGE DS824_WIND DS824_PRES TD9636_LAT TD9636_LON TD9636_STAGE TD9636_WIND TD9636_PRES TD9635_LAT TD9635_LON TD9635_WIND TD9635_PRES TD9635_ROCI NEUMANN_LAT NEUMANN_LON NEUMANN_CLASS NEUMANN_WIND NEUMANN_PRES MLC_LAT MLC_LON MLC_CLASS MLC_WIND MLC_PRES USA_GUST BOM_GUST BOM_GUST_PER REUNION_GUST REUNION_GUST_PER USA_SEAHGT USA_SEARAD_NE USA_SEARAD_SE USA_SEARAD_SW USA_SEARAD_NW STORM_SPEED STORM_DIR
1892158N16114 1892 18 WP MM NOT_NAMED 1892-06-06 04:00:00 NR 16.4000 113.800 main 440 440 __________O___ -1 16.4000 113.800 7 1 317
1892158N16114 1892 18 WP MM NOT_NAMED 1892-06-06 06:00:00 NR 16.4290 113.798 main 440 434 __________P___ -1 16.4290 113.798 7 1 340
1892158N16114 1892 18 WP MM NOT_NAMED 1892-06-06 09:00:00 NR 16.4742 113.795 main 434 434 __________P___ -1 16.4742 113.795 7 1 347
1892158N16114 1892 18 WP MM NOT_NAMED 1892-06-06 12:00:00 NR 16.5235 113.795 main 434 427 __________P___ -1 16.5235 113.795 7 1 0
1892158N16114 1892 18 WP MM NOT_NAMED 1892-06-06 15:00:00 NR 16.5794 113.798 main 427 427 __________P___ -1 16.5794 113.798 7 1 15
1892158N16114 1892 18 WP MM NOT_NAMED 1892-06-06 16:00:00 NR 16.6000 113.800 main 427 427 __________O___ -1 16.6000 113.800 7 1 19
1892158N16114 1892 18 WP MM NOT_NAMED 1892-06-06 18:00:00 NR 16.6443 113.806 main 427 421 __________P___ -1 16.6443 113.806 7 1 10
1892158N16114 1892 18 WP MM NOT_NAMED 1892-06-06 21:00:00 NR 16.7170 113.820 main 421 414 __________P___ -1 16.7170 113.820 7 2 11
1892158N16114 1892 18 WP MM NOT_NAMED 1892-06-07 00:00:00 NR 16.7946 113.845 main 414 414 __________P___ -1 16.7946 113.845 7 2 21
1892158N16114 1892 18 WP MM NOT_NAMED 1892-06-07 03:00:00 NR 16.8738 113.884 main 417 417 __________P___ -1 16.8738 113.884 7 2 27
1892158N16114 1892 18 WP MM NOT_NAMED 1892-06-07 04:00:00 NR 16.9000 113.900 main 417 412 __________O___ -1 16.9000 113.900 7 2 33
1892158N16114 1892 18 WP MM NOT_NAMED 1892-06-07 06:00:00 NR 16.9553 113.941 main 412 412 __________P___ -1 16.9553 113.941 7 2 39
1892158N16114 1892 18 WP MM NOT_NAMED 1892-06-07 09:00:00 NR 17.0383 114.016 main 421 416 __________P___ -1 17.0383 114.016 7 2 42
1892158N16114 1892 18 WP MM NOT_NAMED 1892-06-07 12:00:00 NR 17.1158 114.097 main 425 420 __________P___ -1 17.1158 114.097 7 2 47
1892158N16114 1892 18 WP MM NOT_NAMED 1892-06-07 15:00:00 NR 17.1817 114.176 main 430 430 __________P___ -1 17.1817 114.176 7 2 50
1892158N16114 1892 18 WP MM NOT_NAMED 1892-06-07 16:00:00 NR 17.2000 114.200 main 430 430 __________O___ -1 17.2000 114.200 7 1 47
1892158N16114 1892 18 WP MM NOT_NAMED 1892-06-07 18:00:00 NR 17.2201 114.213 main 430 430 __________P___ -1 17.2201 114.213 7 1 19
1892158N16114 1892 18 WP MM NOT_NAMED 1892-06-07 21:00:00 NR 17.2375 114.225 main 430 430 __________P___ -1 17.2375 114.225 7 1 53
1892158N16114 1892 18 WP MM NOT_NAMED 1892-06-08 00:00:00 NR 17.2535 114.260 main 432 432 __________P___ -1 17.2535 114.260 7 1 68
1892158N16114 1892 18 WP MM NOT_NAMED 1892-06-08 03:00:00 NR 17.2839 114.351 main 441 441 __________P___ -1 17.2839 114.351 7 2 70
1892158N16114 1892 18 WP MM NOT_NAMED 1892-06-08 04:00:00 NR 17.3000 114.400 main 441 441 __________O___ -1 17.3000 114.400 7 4 71
1892158N16114 1892 18 WP MM NOT_NAMED 1892-06-08 06:00:00 NR 17.3444 114.540 main 450 452 __________P___ -1 17.3444 114.540 7 5 72
1892158N16114 1892 18 WP MM NOT_NAMED 1892-06-08 09:00:00 NR 17.4298 114.814 main 470 470 __________P___ -1 17.4298 114.814 7 6 72
1892158N16114 1892 18 WP MM NOT_NAMED 1892-06-08 12:00:00 NR 17.5347 115.138 main 491 480 __________P___ -1 17.5347 115.138 7 7 70
1892158N16114 1892 18 WP MM NOT_NAMED 1892-06-08 15:00:00 NR 17.6563 115.484 main 483 473 __________P___ -1 17.6563 115.484 7 7 69
1892158N16114 1892 18 WP MM NOT_NAMED 1892-06-08 16:00:00 NR 17.7000 115.600 main 473 457 __________O___ -1 17.7000 115.600 7 7 67
1892158N16114 1892 18 WP MM NOT_NAMED 1892-06-08 18:00:00 NR 17.7911 115.811 main 457 432 __________P___ -1 17.7911 115.811 7 7 65
1892158N16114 1892 18 WP MM NOT_NAMED 1892-06-08 21:00:00 NR 17.9405 116.134 main 432 404 __________P___ -1 17.9405 116.134 7 7 64
1892158N16114 1892 18 WP MM NOT_NAMED 1892-06-09 00:00:00 NR 18.0969 116.461 main 404 376 __________P___ -1 18.0969 116.461 7 7 64
1892158N16114 1892 18 WP MM NOT_NAMED 1892-06-09 03:00:00 NR 18.2508 116.790 main 378 368 __________P___ -1 18.2508 116.790 7 7 64
1892158N16114 1892 18 WP MM NOT_NAMED 1892-06-09 04:00:00 NR 18.3000 116.900 main 368 350 __________O___ -1 18.3000 116.900 3 7 68
1892158N16114 1892 18 WP MM NOT_NAMED 1892-06-09 06:00:00 NR 18.3812 117.130 main 350 312 __________P___ -1 18.3812 117.130 3 7 70
1892158N16114 1892 18 WP MM NOT_NAMED 1892-06-09 09:00:00 NR 18.4965 117.475 main 312 286 __________P___ -1 18.4965 117.475 3 7 70
1892158N16114 1892 18 WP MM NOT_NAMED 1892-06-09 12:00:00 NR 18.6152 117.806 main 286 261 __________P___ -1 18.6152 117.806 3 7 67
1892158N16114 1892 18 WP MM NOT_NAMED 1892-06-09 15:00:00 NR 18.7495 118.109 main 261 254 __________P___ -1 18.7495 118.109 3 6 64
1892158N16114 1892 18 WP MM NOT_NAMED 1892-06-09 16:00:00 NR 18.8000 118.200 main 254 238 __________O___ -1 18.8000 118.200 4 6 58
1892158N16114 1892 18 WP MM NOT_NAMED 1892-06-09 18:00:00 NR 18.9108 118.378 main 238 221 __________P___ -1 18.9108 118.378 4 6 53
1892158N16114 1892 18 WP MM NOT_NAMED 1892-06-09 21:00:00 NR 19.0960 118.613 main 224 209 __________P___ -1 19.0960 118.613 4 6 46
1892158N16114 1892 18 WP MM NOT_NAMED 1892-06-10 00:00:00 NR 19.3011 118.808 main 214 208 __________P___ -1 19.3011 118.808 4 5 37
1892158N16114 1892 18 WP MM NOT_NAMED 1892-06-10 03:00:00 NR 19.5229 118.960 main 208 208 __________P___ -1 19.5229 118.960 4 5 31
1892158N16114 1892 18 WP MM NOT_NAMED 1892-06-10 04:00:00 NR 19.6000 119.000 main 215 214 __________O___ -1 19.6000 119.000 4 5 24
1892158N16114 1892 18 WP MM NOT_NAMED 1892-06-10 06:00:00 NR 19.7551 119.068 main 222 222 __________P___ -1 19.7551 119.068 4 5 18
1892158N16114 1892 18 WP MM NOT_NAMED 1892-06-10 09:00:00 NR 20.0006 119.132 main 237 237 __________P___ -1 20.0006 119.132 4 5 10
1892158N16114 1892 18 WP MM NOT_NAMED 1892-06-10 12:00:00 NR 20.2557 119.166 main 237 220 __________P___ -1 20.2557 119.166 4 5 7
1892158N16114 1892 18 WP MM NOT_NAMED 1892-06-10 15:00:00 NR 20.5142 119.191 main 220 212 __________P___ -1 20.5142 119.191 4 5 7
1892158N16114 1892 18 WP MM NOT_NAMED 1892-06-10 16:00:00 NR 20.6000 119.200 main 212 198 __________O___ -1 20.6000 119.200 4 5 5
1892158N16114 1892 18 WP MM NOT_NAMED 1892-06-10 18:00:00 NR 20.7665 119.207 main 198 184 __________P___ -1 20.7665 119.207 4 5 3
1892158N16114 1892 18 WP MM NOT_NAMED 1892-06-10 21:00:00 NR 21.0163 119.218 main 184 159 __________P___ -1 21.0163 119.218 4 5 5
1892158N16114 1892 18 WP MM NOT_NAMED 1892-06-11 00:00:00 NR 21.2663 119.255 main 159 141 __________P___ -1 21.2663 119.255 4 5 14
1892158N16114 1892 18 WP MM NOT_NAMED 1892-06-11 03:00:00 NR 21.5165 119.350 main 141 136 __________P___ -1 21.5165 119.350 4 5 22
1892158N16114 1892 18 WP MM NOT_NAMED 1892-06-11 04:00:00 NR 21.6000 119.400 main 136 113 __________O___ -1 21.6000 119.400 4 6 31
1892158N16114 1892 18 WP MM NOT_NAMED 1892-06-11 06:00:00 NR 21.7849 119.522 main 113 68 __________P___ -1 21.7849 119.522 4 7 36
1892158N16114 1892 18 WP MM NOT_NAMED 1892-06-11 09:00:00 NR 22.0626 119.767 main 68 30 __________P___ -1 22.0626 119.767 4 7 44
1892158N16114 1892 18 WP MM NOT_NAMED 1892-06-11 12:00:00 NR 22.3215 120.082 main 30 0 __________P___ -1 22.3215 120.082 4 8 53
1892158N16114 1892 18 WP MM NOT_NAMED 1892-06-11 15:00:00 NR 22.5399 120.461 main 0 0 __________P___ -1 22.5399 120.461 4 8 60
1892158N16114 1892 18 WP MM NOT_NAMED 1892-06-11 16:00:00 NR 22.6000 120.600 main 0 0 __________O___ -1 22.6000 120.600 4 9 68
1892158N16114 1892 18 WP MM NOT_NAMED 1892-06-11 18:00:00 NR 22.6981 120.896 main 0 0 __________P___ -1 22.6981 120.896 4 9 75
1892158N16114 1892 18 WP MM NOT_NAMED 1892-06-11 21:00:00 NR 22.7983 121.377 main 23 23 __________P___ -1 22.7983 121.377 4 9 80
1892158N16114 1892 18 WP MM NOT_NAMED 1892-06-12 00:00:00 NR 22.8570 121.890 main 55 55 __________P___ -1 22.8570 121.890 4 10 84
1892158N16114 1892 18 WP MM NOT_NAMED 1892-06-12 03:00:00 NR 22.8911 122.421 main 104 114 __________P___ -1 22.8911 122.421 4 10 86
1892158N16114 1892 18 WP MM NOT_NAMED 1892-06-12 04:00:00 NR 22.9000 122.600 main 124 __________O___ -1 22.9000 122.600 7 10 87

デジタル台風データ・検索

IBTrACS Databaseについて

本データベースは、米国NOAAが公開する1842年以降の世界の熱帯低気圧のベストトラックデータアーカイブInternational Best Track Archive for Climate Stewardship (IBTrACS)を、ウェブで閲覧しやすい形式に変換したものです。

最終更新日:2021-12-08